createdAt,value
2019-03-22T00:00:09.993Z,7.30
2019-03-22T00:05:07.239Z,7.37
2019-03-22T00:07:35.618Z,7.35
2019-03-22T00:10:05.245Z,6.40
2019-03-22T00:12:33.630Z,7.00
2019-03-22T00:15:02.008Z,6.37
2019-03-22T00:17:30.388Z,6.20
2019-03-22T00:19:58.794Z,8.55
2019-03-22T00:22:27.167Z,7.70
2019-03-22T00:24:55.563Z,7.62
2019-03-22T00:27:23.923Z,7.28
2019-03-22T00:29:52.319Z,7.20
2019-03-22T00:32:20.683Z,7.47
2019-03-22T00:34:49.077Z,7.58
2019-03-22T00:37:17.455Z,7.03
2019-03-22T00:39:45.846Z,7.58
2019-03-22T00:42:14.220Z,7.37
2019-03-22T00:44:42.615Z,6.55
2019-03-22T00:47:10.988Z,7.92
2019-03-22T00:49:39.392Z,7.35
2019-03-22T00:52:07.765Z,6.30
2019-03-22T00:54:36.155Z,7.08
2019-03-22T00:57:04.531Z,7.20
2019-03-22T00:59:32.936Z,7.10
2019-03-22T01:02:01.299Z,6.53
2019-03-22T01:04:29.731Z,6.40
2019-03-22T01:06:58.098Z,7.00
2019-03-22T01:09:26.500Z,6.60
2019-03-22T01:11:54.887Z,7.20
2019-03-22T01:14:23.281Z,7.37
2019-03-22T01:16:51.658Z,6.67
2019-03-22T01:19:20.055Z,7.47
2019-03-22T01:21:48.431Z,7.50
2019-03-22T01:24:16.801Z,7.45
2019-03-22T01:26:45.190Z,7.30
2019-03-22T01:29:13.482Z,6.92
2019-03-22T01:31:41.813Z,8.65
2019-03-22T01:34:10.187Z,7.15
2019-03-22T01:36:38.616Z,7.22
2019-03-22T01:39:07.007Z,8.05
2019-03-22T01:41:35.740Z,7.50
2019-03-22T01:44:04.105Z,6.70
2019-03-22T01:46:32.540Z,6.85
2019-03-22T01:49:00.924Z,6.75
2019-03-22T01:51:29.318Z,6.30
2019-03-22T01:53:57.688Z,6.28
2019-03-22T01:56:26.076Z,7.53
2019-03-22T01:58:54.453Z,7.15
2019-03-22T02:01:22.842Z,7.12
2019-03-22T02:03:51.215Z,7.42
2019-03-22T02:06:19.610Z,7.20
2019-03-22T02:08:47.899Z,6.78
2019-03-22T02:11:16.295Z,6.58
2019-03-22T02:13:44.659Z,7.50
2019-03-22T02:16:13.057Z,8.00
2019-03-22T02:18:41.423Z,7.80
2019-03-22T02:21:09.814Z,7.35
2019-03-22T02:23:38.202Z,6.60
2019-03-22T02:26:06.596Z,7.42
2019-03-22T02:28:34.968Z,6.37
2019-03-22T02:31:03.367Z,7.47
2019-03-22T02:33:31.743Z,6.95
2019-03-22T02:36:00.128Z,6.85
2019-03-22T02:38:28.509Z,6.70
2019-03-22T02:40:56.890Z,7.35
2019-03-22T02:43:25.283Z,7.65
2019-03-22T02:45:53.671Z,6.25
2019-03-22T02:48:22.046Z,6.95
2019-03-22T02:50:50.429Z,7.05
2019-03-22T02:53:18.825Z,7.17
2019-03-22T02:55:47.246Z,7.60
2019-03-22T02:58:21.052Z,7.35
2019-03-22T03:00:45.627Z,7.97
2019-03-22T03:03:13.989Z,8.25
2019-03-22T03:05:42.381Z,8.30
2019-03-22T03:08:10.849Z,6.95
2019-03-22T03:10:39.227Z,8.03
2019-03-22T03:13:07.621Z,8.40
2019-03-22T03:15:35.992Z,7.05
2019-03-22T03:18:04.395Z,7.20
2019-03-22T03:20:32.763Z,6.42
2019-03-22T03:23:01.182Z,7.00
2019-03-22T03:25:29.546Z,7.60
2019-03-22T03:27:57.940Z,7.67
2019-03-22T03:30:26.317Z,6.45
2019-03-22T03:32:54.730Z,7.53
2019-03-22T03:35:23.076Z,6.70
2019-03-22T03:37:51.485Z,6.67
2019-03-22T03:40:19.844Z,7.28
2019-03-22T03:42:48.240Z,7.83
2019-03-22T03:45:28.637Z,7.87
2019-03-22T03:47:57.191Z,8.50
2019-03-22T03:50:25.562Z,8.23
2019-03-22T03:52:53.955Z,7.65
2019-03-22T03:55:22.327Z,7.90
2019-03-22T03:57:50.717Z,7.90
2019-03-22T04:00:19.089Z,7.85
2019-03-22T04:02:47.499Z,7.58
2019-03-22T04:05:15.861Z,7.50
2019-03-22T04:07:44.253Z,8.63
2019-03-22T04:10:12.622Z,8.43
2019-03-22T04:12:41.020Z,8.25
2019-03-22T04:15:09.388Z,8.35
2019-03-22T04:17:37.794Z,7.42
2019-03-22T04:20:06.347Z,8.53
2019-03-22T04:22:36.281Z,6.97
2019-03-22T04:25:06.803Z,7.37
2019-03-22T04:27:35.226Z,8.23
2019-03-22T04:30:04.653Z,7.58
2019-03-22T04:32:33.064Z,8.78
2019-03-22T04:35:01.636Z,8.13
2019-03-22T04:37:30.037Z,9.08
2019-03-22T04:39:58.418Z,7.55
2019-03-22T04:42:26.817Z,8.43
2019-03-22T04:44:55.193Z,8.63
2019-03-22T04:47:23.590Z,8.78
2019-03-22T04:49:51.950Z,9.13
2019-03-22T04:52:20.360Z,9.45
2019-03-22T04:54:48.719Z,8.45
2019-03-22T04:57:17.130Z,8.25
2019-03-22T04:59:45.495Z,7.17
2019-03-22T05:02:14.444Z,8.95
2019-03-22T05:04:42.844Z,8.58
2019-03-22T05:07:11.220Z,8.80
2019-03-22T05:09:39.614Z,7.72
2019-03-22T05:12:07.986Z,8.60
2019-03-22T05:14:37.064Z,7.95
2019-03-22T05:17:05.551Z,8.83
2019-03-22T05:19:34.688Z,8.70
2019-03-22T05:22:03.127Z,8.58
2019-03-22T05:24:31.724Z,8.83
2019-03-22T05:27:00.048Z,7.95
2019-03-22T05:29:30.870Z,9.10
2019-03-22T05:32:07.282Z,8.85
2019-03-22T05:34:35.688Z,8.53
2019-03-22T05:37:04.133Z,8.28
2019-03-22T05:39:32.539Z,9.03
2019-03-22T05:42:00.924Z,8.95
2019-03-22T05:44:29.324Z,9.13
2019-03-22T05:46:57.703Z,8.15
2019-03-22T05:49:26.092Z,8.90
2019-03-22T05:51:54.452Z,8.15
2019-03-22T05:54:22.842Z,8.30
2019-03-22T05:56:51.141Z,8.28
2019-03-22T05:59:19.540Z,8.28
2019-03-22T06:01:47.920Z,8.30
2019-03-22T06:04:16.299Z,8.45
2019-03-22T06:06:44.673Z,8.83
2019-03-22T06:09:13.075Z,8.43
2019-03-22T06:11:41.442Z,7.80
2019-03-22T06:14:09.846Z,8.53
2019-03-22T06:16:38.153Z,7.85
2019-03-22T06:19:06.561Z,8.83
2019-03-22T06:21:34.959Z,8.65
2019-03-22T06:24:03.338Z,8.00
2019-03-22T06:26:31.706Z,8.73
2019-03-22T06:29:00.092Z,9.13
2019-03-22T06:31:28.486Z,8.60
2019-03-22T06:33:56.932Z,8.78
2019-03-22T06:36:25.309Z,8.33
2019-03-22T06:38:53.711Z,8.50
2019-03-22T06:41:22.120Z,8.65
2019-03-22T06:43:50.521Z,8.35
2019-03-22T06:46:18.940Z,7.25
2019-03-22T06:48:47.325Z,9.35
2019-03-22T06:51:15.717Z,8.10
2019-03-22T06:53:44.090Z,8.90
2019-03-22T06:56:12.498Z,8.20
2019-03-22T06:58:40.905Z,8.25
2019-03-22T07:01:09.377Z,7.45
2019-03-22T07:03:37.691Z,7.67
2019-03-22T07:06:06.114Z,8.00
2019-03-22T07:08:34.496Z,6.78
2019-03-22T07:11:02.906Z,7.55
2019-03-22T07:13:31.270Z,7.62
2019-03-22T07:15:59.695Z,7.72
2019-03-22T07:18:28.070Z,7.62
2019-03-22T07:20:56.479Z,8.28
2019-03-22T07:23:24.865Z,7.80
2019-03-22T07:25:53.277Z,7.67
2019-03-22T07:28:21.693Z,7.37
2019-03-22T07:30:50.123Z,7.83
2019-03-22T07:33:18.573Z,7.50
2019-03-22T07:35:46.989Z,7.17
2019-03-22T07:38:15.363Z,7.83
2019-03-22T07:40:43.784Z,8.43
2019-03-22T07:43:12.169Z,9.08
2019-03-22T07:45:40.587Z,8.53
2019-03-22T07:48:08.996Z,8.05
2019-03-22T07:50:37.419Z,7.87
2019-03-22T07:53:05.805Z,9.28
2019-03-22T07:55:34.209Z,7.65
2019-03-22T07:58:02.584Z,8.80
2019-03-22T08:00:31.324Z,9.30
2019-03-22T08:02:59.768Z,9.00
2019-03-22T08:05:28.172Z,9.48
2019-03-22T08:07:56.555Z,9.28
2019-03-22T08:10:24.961Z,9.18
2019-03-22T08:12:53.377Z,8.83
2019-03-22T08:15:31.566Z,9.73
2019-03-22T08:18:00.426Z,9.43
2019-03-22T08:20:28.910Z,9.78
2019-03-22T08:22:57.365Z,10.03
2019-03-22T08:25:25.765Z,9.73
2019-03-22T08:27:54.187Z,9.40
2019-03-22T08:30:22.590Z,9.23
2019-03-22T08:32:50.983Z,11.22
2019-03-22T08:35:19.404Z,10.53
2019-03-22T08:37:52.508Z,10.55
2019-03-22T08:40:17.845Z,11.30
2019-03-22T08:42:46.249Z,12.18
2019-03-22T08:45:14.670Z,11.25
2019-03-22T08:47:43.134Z,11.08
2019-03-22T08:50:11.590Z,11.95
2019-03-22T08:52:40.010Z,10.23
2019-03-22T08:55:08.432Z,11.28
2019-03-22T08:57:36.779Z,13.15
2019-03-22T09:00:07.782Z,11.53
2019-03-22T09:02:36.265Z,12.75
2019-03-22T09:05:06.074Z,11.88
2019-03-22T09:07:34.507Z,11.48
2019-03-22T09:10:03.964Z,12.60
2019-03-22T09:12:32.367Z,12.05
2019-03-22T09:15:00.752Z,12.33
2019-03-22T09:17:29.207Z,11.68
2019-03-22T09:19:57.581Z,12.68
2019-03-22T09:22:26.064Z,12.03
2019-03-22T09:24:54.419Z,13.90
2019-03-22T09:27:22.873Z,13.25
2019-03-22T09:29:51.231Z,13.85
2019-03-22T09:32:19.642Z,14.25
2019-03-22T09:34:48.030Z,14.00
2019-03-22T09:37:18.281Z,13.98
2019-03-22T09:39:46.708Z,14.33
2019-03-22T09:42:15.147Z,14.20
2019-03-22T09:44:44.552Z,15.23
2019-03-22T09:47:16.359Z,13.98
2019-03-22T09:49:43.656Z,15.25
2019-03-22T09:52:12.080Z,14.10
2019-03-22T09:54:40.468Z,14.83
2019-03-22T09:57:08.907Z,15.03
2019-03-22T09:59:37.335Z,15.13
2019-03-22T10:02:05.726Z,15.03
2019-03-22T10:04:34.121Z,13.72
2019-03-22T10:07:02.507Z,14.68
2019-03-22T10:09:30.911Z,14.10
2019-03-22T10:11:59.413Z,12.68
2019-03-22T10:14:31.228Z,12.95
2019-03-22T10:16:58.460Z,13.00
2019-03-22T10:19:27.007Z,12.88
2019-03-22T10:21:55.655Z,12.80
2019-03-22T10:24:24.051Z,14.05
2019-03-22T10:26:52.456Z,13.62
2019-03-22T10:29:21.704Z,15.38
2019-03-22T10:31:50.102Z,13.20
2019-03-22T10:34:18.481Z,13.28
2019-03-22T10:36:46.918Z,13.35
2019-03-22T10:39:15.305Z,13.83
2019-03-22T10:41:43.637Z,13.10
2019-03-22T10:44:12.035Z,11.65
2019-03-22T10:46:40.415Z,12.18
2019-03-22T10:49:08.816Z,11.88
2019-03-22T10:51:37.220Z,12.30
2019-03-22T10:54:05.659Z,12.28
2019-03-22T10:56:33.975Z,13.58
2019-03-22T10:59:02.365Z,12.75
2019-03-22T11:01:30.755Z,13.35
2019-03-22T11:03:59.220Z,11.80
2019-03-22T11:06:27.828Z,13.58
2019-03-22T11:08:56.240Z,11.78
2019-03-22T11:11:24.607Z,13.88
2019-03-22T11:13:53.082Z,12.63
2019-03-22T11:16:21.446Z,12.25
2019-03-22T11:18:49.846Z,12.50
2019-03-22T11:21:18.219Z,12.90
2019-03-22T11:23:46.625Z,12.03
2019-03-22T11:26:14.999Z,12.95
2019-03-22T11:28:43.422Z,12.35
2019-03-22T11:31:11.804Z,13.25
2019-03-22T11:33:40.117Z,12.00
2019-03-22T11:36:08.584Z,12.70
2019-03-22T11:38:36.961Z,11.53
2019-03-22T11:41:05.365Z,12.37
2019-03-22T11:43:33.769Z,12.23
2019-03-22T11:46:02.150Z,12.07
2019-03-22T11:48:30.533Z,10.50
2019-03-22T11:50:58.941Z,11.20
2019-03-22T11:53:27.310Z,11.12
2019-03-22T11:55:55.718Z,11.15
2019-03-22T11:58:24.122Z,9.03
2019-03-22T12:00:52.519Z,9.48
2019-03-22T12:03:20.909Z,9.30
2019-03-22T12:05:49.321Z,10.10
2019-03-22T12:08:17.707Z,9.90
2019-03-22T12:10:46.104Z,9.20
2019-03-22T12:13:14.478Z,9.98
2019-03-22T12:15:42.891Z,8.85
2019-03-22T12:18:11.279Z,8.80
2019-03-22T12:20:39.685Z,8.90
2019-03-22T12:23:08.067Z,8.75
2019-03-22T12:25:36.454Z,9.15
2019-03-22T12:28:04.845Z,8.65
2019-03-22T12:30:33.247Z,8.60
2019-03-22T12:33:01.617Z,8.80
2019-03-22T12:35:30.019Z,8.78
2019-03-22T12:37:58.398Z,8.20
2019-03-22T12:40:26.728Z,8.00
2019-03-22T12:42:56.626Z,8.83
2019-03-22T12:45:26.535Z,8.13
2019-03-22T12:47:54.932Z,7.78
2019-03-22T12:50:23.504Z,7.35
2019-03-22T12:52:51.887Z,6.90
2019-03-22T12:55:20.287Z,7.45
2019-03-22T12:57:48.736Z,7.28
2019-03-22T13:00:26.655Z,8.05
2019-03-22T13:02:54.996Z,7.42
2019-03-22T13:05:23.390Z,7.65
2019-03-22T13:07:51.934Z,8.13
2019-03-22T13:10:23.595Z,8.60
2019-03-22T13:12:51.973Z,7.65
2019-03-22T13:15:20.376Z,7.72
2019-03-22T13:17:48.754Z,6.90
2019-03-22T13:20:17.306Z,6.92
2019-03-22T13:22:45.711Z,7.10
2019-03-22T13:25:17.278Z,5.50
2019-03-22T13:27:45.658Z,5.92
2019-03-22T13:30:28.508Z,5.80
2019-03-22T13:32:56.908Z,4.75
2019-03-22T13:35:25.276Z,5.00
2019-03-22T13:37:53.675Z,6.08
2019-03-22T13:40:22.053Z,5.95
2019-03-22T13:42:50.451Z,6.53
2019-03-22T13:45:18.821Z,6.33
2019-03-22T13:47:47.219Z,6.92
2019-03-22T13:50:15.605Z,6.87
2019-03-22T13:52:43.997Z,5.17
2019-03-22T13:55:12.368Z,6.30
2019-03-22T13:57:40.764Z,6.65
2019-03-22T14:00:11.192Z,6.35
2019-03-22T14:02:39.591Z,6.37
2019-03-22T14:05:08.409Z,6.62
2019-03-22T14:07:36.803Z,5.40
2019-03-22T14:10:10.837Z,5.90
2019-03-22T14:12:39.239Z,6.45
2019-03-22T14:15:08.070Z,5.45
2019-03-22T14:17:36.492Z,6.80
2019-03-22T14:20:11.279Z,5.85
2019-03-22T14:22:36.083Z,6.78
2019-03-22T14:25:05.808Z,6.92
2019-03-22T14:27:34.196Z,6.30
2019-03-22T14:30:03.165Z,5.30
2019-03-22T14:32:31.560Z,7.33
2019-03-22T14:34:59.935Z,7.08
2019-03-22T14:37:28.465Z,7.35
2019-03-22T14:39:56.822Z,7.65
2019-03-22T14:42:25.217Z,8.00
2019-03-22T14:44:53.595Z,7.78
2019-03-22T14:47:22.007Z,6.75
2019-03-22T14:49:50.386Z,7.28
2019-03-22T14:52:18.708Z,6.28
2019-03-22T14:54:47.091Z,6.47
2019-03-22T14:57:15.482Z,6.62
2019-03-22T14:59:43.854Z,7.72
2019-03-22T15:02:12.270Z,7.35
2019-03-22T15:04:40.656Z,7.03
2019-03-22T15:07:19.598Z,5.83
2019-03-22T15:09:39.066Z,5.97
2019-03-22T15:12:07.470Z,5.83
2019-03-22T15:14:52.791Z,5.03
2019-03-22T15:17:22.815Z,5.80
2019-03-22T15:20:09.267Z,5.97
2019-03-22T15:22:39.304Z,6.53
2019-03-22T15:25:12.384Z,6.72
2019-03-22T15:30:17.743Z,7.90
2019-03-22T15:32:53.466Z,7.75
2019-03-22T15:35:39.479Z,8.48
2019-03-22T15:38:12.594Z,7.80
2019-03-22T15:43:08.620Z,8.78
2019-03-22T15:45:36.999Z,8.98
2019-03-22T15:48:05.394Z,8.65
2019-03-22T15:50:33.780Z,8.05
2019-03-22T15:53:03.359Z,7.40
2019-03-22T15:55:31.675Z,8.25
2019-03-22T15:58:00.064Z,7.83
2019-03-22T16:00:28.440Z,8.40
2019-03-22T16:02:56.836Z,10.00
2019-03-22T16:05:25.209Z,9.33
2019-03-22T16:07:53.651Z,10.20
2019-03-22T16:10:22.021Z,10.13
2019-03-22T16:12:50.426Z,10.53
2019-03-22T16:15:18.821Z,9.93
2019-03-22T16:17:47.220Z,10.18
2019-03-22T16:20:15.603Z,11.03
2019-03-22T16:22:44.000Z,10.88
2019-03-22T16:25:12.600Z,11.97
2019-03-22T16:27:41.796Z,12.10
2019-03-22T16:30:13.477Z,12.95
2019-03-22T16:32:42.032Z,12.58
2019-03-22T16:35:10.713Z,12.80
2019-03-22T16:37:39.216Z,13.00
2019-03-22T16:40:09.107Z,12.33
2019-03-22T16:42:37.608Z,14.40
2019-03-22T16:45:09.134Z,13.43
2019-03-22T16:47:37.645Z,13.88
2019-03-22T16:50:23.632Z,14.15
2019-03-22T16:52:52.109Z,14.50
2019-03-22T16:55:20.712Z,14.18
2019-03-22T16:57:49.130Z,15.00
2019-03-22T17:00:17.652Z,15.03
2019-03-22T17:02:46.087Z,14.68
2019-03-22T17:05:15.364Z,16.07
2019-03-22T17:07:43.858Z,15.85
2019-03-22T17:10:12.383Z,16.10
2019-03-22T17:12:40.792Z,16.00
2019-03-22T17:15:09.311Z,16.42
2019-03-22T17:17:37.731Z,16.02
2019-03-22T17:20:06.554Z,15.10
2019-03-22T17:22:34.978Z,16.02
2019-03-22T17:25:03.821Z,15.98
2019-03-22T17:27:32.267Z,15.83
2019-03-22T17:30:00.714Z,14.10
2019-03-22T17:32:29.148Z,13.38
2019-03-22T17:34:57.592Z,14.83
2019-03-22T17:37:26.055Z,13.70
2019-03-22T17:39:54.510Z,15.53
2019-03-22T17:42:23.010Z,14.93
2019-03-22T17:44:51.455Z,13.90
2019-03-22T17:47:19.885Z,15.48
2019-03-22T17:49:48.725Z,16.37
2019-03-22T17:52:17.169Z,16.52
2019-03-22T17:54:45.629Z,14.90
2019-03-22T17:57:18.655Z,16.30
2019-03-22T17:59:44.289Z,16.60
2019-03-22T18:02:12.709Z,17.05
2019-03-22T18:04:41.152Z,17.80
2019-03-22T18:07:09.609Z,18.87
2019-03-22T18:09:38.056Z,19.92
2019-03-22T18:12:06.479Z,21.25
2019-03-22T18:14:35.034Z,19.82
2019-03-22T18:17:03.908Z,18.70
2019-03-22T18:19:32.702Z,17.75
2019-03-22T18:22:01.230Z,19.95
2019-03-22T18:24:29.899Z,18.77
2019-03-22T18:26:59.662Z,15.25
2019-03-22T18:29:28.819Z,13.35
2019-03-22T18:31:57.222Z,14.78
2019-03-22T18:34:33.934Z,13.45
2019-03-22T18:36:55.752Z,14.93
2019-03-22T18:39:24.205Z,14.53
2019-03-22T18:41:54.480Z,15.00
2019-03-22T18:44:24.570Z,13.13
2019-03-22T18:46:52.982Z,15.23
2019-03-22T18:49:21.428Z,16.23
2019-03-22T18:51:49.855Z,13.95
2019-03-22T18:54:18.385Z,16.12
2019-03-22T18:56:46.820Z,14.87
2019-03-22T18:59:15.248Z,15.75
2019-03-22T19:01:43.703Z,15.83
2019-03-22T19:04:12.135Z,16.20
2019-03-22T19:06:40.620Z,16.90
2019-03-22T19:09:09.119Z,16.48
2019-03-22T19:11:37.564Z,18.12
2019-03-22T19:14:05.990Z,17.37
2019-03-22T19:16:34.470Z,18.67
2019-03-22T19:19:02.893Z,17.55
2019-03-22T19:21:31.349Z,18.15
2019-03-22T19:23:59.756Z,17.62
2019-03-22T19:26:29.750Z,17.95
2019-03-22T19:28:58.323Z,18.07
2019-03-22T19:31:26.800Z,18.32
2019-03-22T19:33:55.235Z,17.17
2019-03-22T19:36:23.695Z,20.02
2019-03-22T19:38:53.769Z,17.00
2019-03-22T19:41:22.216Z,19.65
2019-03-22T19:43:50.642Z,20.50
2019-03-22T19:46:19.088Z,18.50
2019-03-22T19:48:47.542Z,19.27
2019-03-22T19:51:15.988Z,19.80
2019-03-22T19:53:44.415Z,19.50
2019-03-22T19:56:12.877Z,18.42
2019-03-22T19:58:41.305Z,19.80
2019-03-22T20:01:11.110Z,18.07
2019-03-22T20:03:39.535Z,20.17
2019-03-22T20:06:07.972Z,18.40
2019-03-22T20:08:36.412Z,18.27
2019-03-22T20:11:04.870Z,20.60
2019-03-22T20:13:33.342Z,20.45
2019-03-22T20:16:01.923Z,19.15
2019-03-22T20:18:30.343Z,20.43
2019-03-22T20:20:58.932Z,20.55
2019-03-22T20:23:27.369Z,19.20
2019-03-22T20:25:55.888Z,20.37
2019-03-22T20:28:24.327Z,20.43
2019-03-22T20:30:54.096Z,21.80
2019-03-22T20:33:22.534Z,19.23
2019-03-22T20:35:50.992Z,18.80
2019-03-22T20:38:19.414Z,21.93
2019-03-22T20:40:47.870Z,19.57
2019-03-22T20:43:16.289Z,21.48
2019-03-22T20:45:44.746Z,21.50
2019-03-22T20:48:13.162Z,23.35
2019-03-22T20:50:41.587Z,21.23
2019-03-22T20:53:10.033Z,20.70
2019-03-22T20:55:38.462Z,24.35
2019-03-22T20:58:06.926Z,26.23
2019-03-22T21:00:35.354Z,28.02
2019-03-22T21:03:03.799Z,27.75
2019-03-22T21:05:32.235Z,27.52
2019-03-22T21:08:00.675Z,25.48
2019-03-22T21:10:29.245Z,21.60
2019-03-22T21:12:57.680Z,21.00
2019-03-22T21:15:26.082Z,22.65
2019-03-22T21:17:54.501Z,22.40
2019-03-22T21:20:22.914Z,21.65
2019-03-22T21:22:51.376Z,22.98
2019-03-22T21:25:19.768Z,21.40
2019-03-22T21:27:48.262Z,23.22
2019-03-22T21:30:16.662Z,22.07
2019-03-22T21:32:45.937Z,21.27
2019-03-22T21:35:22.531Z,21.42
2019-03-22T21:37:44.580Z,21.05
2019-03-22T21:40:12.989Z,23.00
2019-03-22T21:42:41.465Z,23.12
2019-03-22T21:45:10.627Z,24.57
2019-03-22T21:47:39.061Z,23.47
2019-03-22T21:50:08.939Z,23.83
2019-03-22T21:52:37.392Z,25.30
2019-03-22T21:55:07.810Z,22.20
2019-03-22T21:57:36.261Z,23.10
2019-03-22T22:00:10.131Z,25.35
2019-03-22T22:02:38.572Z,24.20
2019-03-22T22:05:07.079Z,22.32
2019-03-22T22:07:35.533Z,24.37
2019-03-22T22:10:06.498Z,22.52
2019-03-22T22:12:34.871Z,24.12
2019-03-22T22:15:04.123Z,24.57
2019-03-22T22:17:32.591Z,23.70
2019-03-22T22:20:00.974Z,24.85
2019-03-22T22:22:29.445Z,26.70
2019-03-22T22:24:57.830Z,27.17
2019-03-22T22:27:26.214Z,28.70
2019-03-22T22:29:54.633Z,28.50
2019-03-22T22:32:23.036Z,28.62
2019-03-22T22:34:51.478Z,27.30
2019-03-22T22:37:19.868Z,28.38
2019-03-22T22:39:48.317Z,27.30
2019-03-22T22:42:16.730Z,27.15
2019-03-22T22:44:45.193Z,28.60
2019-03-22T22:47:13.551Z,29.48
2019-03-22T22:49:42.009Z,28.15
2019-03-22T22:52:10.434Z,25.85
2019-03-22T22:54:38.823Z,24.67
2019-03-22T22:57:07.233Z,24.10
2019-03-22T22:59:35.685Z,22.65
2019-03-22T23:02:04.275Z,22.13
2019-03-22T23:04:32.726Z,24.27
2019-03-22T23:07:01.223Z,22.30
2019-03-22T23:09:29.611Z,25.35
2019-03-22T23:11:57.996Z,24.52
2019-03-22T23:14:26.406Z,25.77
2019-03-22T23:16:54.792Z,25.32
2019-03-22T23:19:23.200Z,22.80
2019-03-22T23:21:51.570Z,22.15
2019-03-22T23:24:19.966Z,25.12
2019-03-22T23:26:48.337Z,26.93
2019-03-22T23:29:16.748Z,28.57
2019-03-22T23:31:45.154Z,33.18
2019-03-22T23:34:13.522Z,31.07
2019-03-22T23:36:41.894Z,30.10
2019-03-22T23:39:10.289Z,29.05
2019-03-22T23:41:38.664Z,29.45
2019-03-22T23:44:07.057Z,29.65
2019-03-22T23:46:35.528Z,28.55
2019-03-22T23:49:03.922Z,28.47
2019-03-22T23:51:32.309Z,27.15
2019-03-22T23:54:00.720Z,29.00
2019-03-22T23:56:31.832Z,30.62
2019-03-22T23:59:00.218Z,26.07
